LSZHLXGB

Guest
Details From LSZH - Zurich
To LXGB - Gibraltar
Flight Number -
Tags Generated
Created
Modified
Stats Distance 925 nm / 1,713 km
Max Altitude 0 ft / 0 m
Waypoints 6
Social Downloads 3
Likes 0
Share VATSIM

Download

Looking for another format? Having issues loading an existing format? Contact us
Advertisement - Login to hide

Notes

Generated

Route

LSZH LSE46 USKAR VL001 BRIKE LXGB

ID Type Via Altitude Latitude Longitude Leg Dist Tot Dist Heading (true) Name
O LSZH APT - 0 ft / 0 m 47.45894˚ 8.53748˚ - 0 nm - -
LSE46 FIX - 0 ft / 0 m 45.02190˚ 4.82574˚ 212 nm 212 nm 228° / 225° -
USKAR FIX - 0 ft / 0 m 42.14373˚ 1.06587˚ 237 nm 450 nm 225° / 222° -
VL001 FIX - 0 ft / 0 m 39.39964˚ -2.40964˚ 228 nm 678 nm 225° / 223° -
BRIKE FIX - 0 ft / 0 m 36.50478˚ -5.41645˚ 224 nm 903 nm 220° / 218° -
O LXGB APT - 0 ft / 0 m 36.15080˚ -5.35977˚ 21 nm 924 nm 173° / 173° -

Altitude Profile

Advertisement - Login to hide

Weather


0- 5 10 15 20 25 30 35+ Temperature / ° C

Clouds and Precipitation
Forecast for 2018-05-21 06:00 UTC. Updated 2 hours ago

Ground ~20,000 ft ~40,000 ft Winds

LSZH

Details ICAO LSZH (ZRH)
Name Zurich
Region Switzerland
Timezone Europe/Zurich (UTC+2.0)
Stats Elevation 1,416 ft / 432 m (AMSL)
Location 47.463489° 8.549964°
Runways 3
Magnetic Variation 2.398° E

METAR

LSZH 210720Z VRB02KT 9999 FEW011 SCT230 15/12 Q1015 NOSIG

Decode

TAF

TAF LSZH 210525Z 2106/2212 VRB03KT 9000 NSC TX22/2114Z TN11/2106Z TN10/2204Z BECMG 2106/2108 CAVOK BECMG 2110/2113 9999 SCT030 PROB40 TEMPO 2113/2118 SHRA SCT040TCU PROB30 TEMPO 2113/2118 16012KT 4000 TSRA FEW040CB BECMG 2118/2121 CAVOK PROB30 2203/2207 2000 BCFG BKN002 BECMG 2209/2212 9999 FEW040

Decode

Departure Runways

ID Width Length Bearing (true) Bearing (mag) Surface Threshold Offset Overrun Length
10 197 ft / 60 m 8,180 ft / 2,493 m 95.98° 93.58° Concrete 0 ft / 0 m 197 ft / 60 m
14 197 ft / 60 m 10,816 ft / 3,297 m 137.30° 134.90° Concrete 492 ft / 150 m 0 ft / 0 m
16 197 ft / 60 m 12,137 ft / 3,699 m 155.00° 152.60° Concrete 0 ft / 0 m 197 ft / 60 m
28 197 ft / 60 m 8,180 ft / 2,493 m 276.01° 273.61° Concrete 0 ft / 0 m 197 ft / 60 m
32 197 ft / 60 m 10,816 ft / 3,297 m 317.32° 314.92° Concrete 0 ft / 0 m 197 ft / 60 m
34 197 ft / 60 m 12,137 ft / 3,699 m 335.01° 332.61° Concrete 1,542 ft / 470 m 0 ft / 0 m

LXGB

Details ICAO LXGB (GIB)
Name Gibraltar
Region Gibralter
Timezone Europe/Gibraltar (UTC+2.0)
Stats Elevation 15 ft / 5 m (AMSL)
Location 36.151209° -5.349664°
Runways 1
Magnetic Variation 1.073° W

METAR

LXGB 210650Z 25002KT CAVOK 16/13 Q1013 NOSIG

Decode

TAF

Not found

Destination Runways

ID Width Length Bearing (true) Bearing (mag) Surface Threshold Offset Overrun Length
27 151 ft / 46 m 5,992 ft / 1,826 m 267.56° 268.63° Asphalt 367 ft / 112 m 89 ft / 27 m
9 151 ft / 46 m 5,992 ft / 1,826 m 87.54° 88.61° Asphalt 299 ft / 91 m 52 ft / 16 m

Popular Alternatives